sensor_id;sensor_type;location;lat;lon;timestamp;P1;durP1;ratioP1;P2;durP2;ratioP2
71162;SDS011;58858;50.948;6.566;2024-02-04T00:06:39;2.85;;;2.25;;
71162;SDS011;58858;50.948;6.566;2024-02-04T00:16:40;3.17;;;2.35;;
71162;SDS011;58858;50.948;6.566;2024-02-04T00:26:42;3.08;;;2.58;;
71162;SDS011;58858;50.948;6.566;2024-02-04T00:36:43;3.67;;;2.45;;
71162;SDS011;58858;50.948;6.566;2024-02-04T00:46:44;2.65;;;1.95;;
71162;SDS011;58858;50.948;6.566;2024-02-04T00:56:45;1.63;;;1.50;;
71162;SDS011;58858;50.948;6.566;2024-02-04T01:06:46;2.10;;;1.67;;
71162;SDS011;58858;50.948;6.566;2024-02-04T01:16:47;1.50;;;1.40;;
71162;SDS011;58858;50.948;6.566;2024-02-04T01:26:48;2.13;;;1.48;;
71162;SDS011;58858;50.948;6.566;2024-02-04T01:36:49;1.83;;;1.52;;
71162;SDS011;58858;50.948;6.566;2024-02-04T01:46:50;4.35;;;1.90;;
71162;SDS011;58858;50.948;6.566;2024-02-04T01:56:51;1.92;;;1.58;;
71162;SDS011;58858;50.948;6.566;2024-02-04T02:06:56;3.15;;;2.00;;
71162;SDS011;58858;50.948;6.566;2024-02-04T02:16:57;2.50;;;1.73;;
71162;SDS011;58858;50.948;6.566;2024-02-04T02:27:03;2.03;;;1.83;;
71162;SDS011;58858;50.948;6.566;2024-02-04T02:37:08;2.40;;;1.90;;
71162;SDS011;58858;50.948;6.566;2024-02-04T02:47:13;2.20;;;1.90;;
71162;SDS011;58858;50.948;6.566;2024-02-04T02:57:15;1.70;;;1.60;;
71162;SDS011;58858;50.948;6.566;2024-02-04T03:07:16;1.92;;;1.58;;
71162;SDS011;58858;50.948;6.566;2024-02-04T03:17:17;1.67;;;1.58;;
71162;SDS011;58858;50.948;6.566;2024-02-04T03:27:22;3.80;;;2.10;;
71162;SDS011;58858;50.948;6.566;2024-02-04T03:37:23;2.35;;;2.00;;
71162;SDS011;58858;50.948;6.566;2024-02-04T03:47:24;2.50;;;2.28;;
71162;SDS011;58858;50.948;6.566;2024-02-04T03:57:26;4.65;;;1.88;;
71162;SDS011;58858;50.948;6.566;2024-02-04T04:07:27;1.45;;;1.02;;
71162;SDS011;58858;50.948;6.566;2024-02-04T04:17:28;1.77;;;1.58;;
71162;SDS011;58858;50.948;6.566;2024-02-04T04:27:29;4.68;;;2.85;;
71162;SDS011;58858;50.948;6.566;2024-02-04T04:37:30;4.10;;;2.40;;
71162;SDS011;58858;50.948;6.566;2024-02-04T04:47:31;6.20;;;3.00;;
71162;SDS011;58858;50.948;6.566;2024-02-04T04:57:32;6.07;;;3.10;;
71162;SDS011;58858;50.948;6.566;2024-02-04T05:07:33;5.28;;;2.80;;
71162;SDS011;58858;50.948;6.566;2024-02-04T05:17:34;7.43;;;3.15;;
71162;SDS011;58858;50.948;6.566;2024-02-04T05:27:36;3.42;;;2.75;;
71162;SDS011;58858;50.948;6.566;2024-02-04T05:37:37;3.85;;;2.92;;
71162;SDS011;58858;50.948;6.566;2024-02-04T05:47:38;5.07;;;3.88;;
71162;SDS011;58858;50.948;6.566;2024-02-04T05:57:39;6.13;;;4.18;;
71162;SDS011;58858;50.948;6.566;2024-02-04T06:07:42;5.15;;;4.50;;
71162;SDS011;58858;50.948;6.566;2024-02-04T06:17:43;3.00;;;2.70;;
71162;SDS011;58858;50.948;6.566;2024-02-04T06:27:44;2.22;;;1.92;;
71162;SDS011;58858;50.948;6.566;2024-02-04T06:37:45;1.50;;;1.38;;
71162;SDS011;58858;50.948;6.566;2024-02-04T06:47:46;1.60;;;0.88;;
71162;SDS011;58858;50.948;6.566;2024-02-04T06:57:47;1.20;;;0.95;;
71162;SDS011;58858;50.948;6.566;2024-02-04T07:07:51;0.90;;;0.90;;
71162;SDS011;58858;50.948;6.566;2024-02-04T07:17:53;1.30;;;0.97;;
71162;SDS011;58858;50.948;6.566;2024-02-04T07:27:54;0.70;;;0.55;;
71162;SDS011;58858;50.948;6.566;2024-02-04T07:37:55;0.80;;;0.80;;
71162;SDS011;58858;50.948;6.566;2024-02-04T07:47:56;2.67;;;1.63;;
71162;SDS011;58858;50.948;6.566;2024-02-04T07:57:57;1.17;;;1.00;;
71162;SDS011;58858;50.948;6.566;2024-02-04T08:07:58;1.98;;;1.88;;
71162;SDS011;58858;50.948;6.566;2024-02-04T08:18:00;5.50;;;2.30;;
71162;SDS011;58858;50.948;6.566;2024-02-04T08:28:01;2.97;;;2.08;;
71162;SDS011;58858;50.948;6.566;2024-02-04T08:38:02;2.80;;;1.60;;
71162;SDS011;58858;50.948;6.566;2024-02-04T08:48:04;2.28;;;1.00;;
71162;SDS011;58858;50.948;6.566;2024-02-04T08:58:05;1.13;;;0.77;;
71162;SDS011;58858;50.948;6.566;2024-02-04T09:08:06;1.20;;;0.60;;
71162;SDS011;58858;50.948;6.566;2024-02-04T09:18:07;0.90;;;0.80;;
71162;SDS011;58858;50.948;6.566;2024-02-04T09:28:08;1.75;;;0.75;;
71162;SDS011;58858;50.948;6.566;2024-02-04T09:38:10;3.55;;;1.70;;
71162;SDS011;58858;50.948;6.566;2024-02-04T09:48:12;1.10;;;1.00;;
71162;SDS011;58858;50.948;6.566;2024-02-04T09:58:14;2.63;;;1.60;;
71162;SDS011;58858;50.948;6.566;2024-02-04T10:08:15;3.25;;;2.13;;
71162;SDS011;58858;50.948;6.566;2024-02-04T10:18:17;1.85;;;1.70;;
71162;SDS011;58858;50.948;6.566;2024-02-04T10:28:18;2.00;;;1.80;;
71162;SDS011;58858;50.948;6.566;2024-02-04T10:38:20;4.88;;;1.25;;
71162;SDS011;58858;50.948;6.566;2024-02-04T10:48:22;1.25;;;0.98;;
71162;SDS011;58858;50.948;6.566;2024-02-04T10:58:25;1.77;;;0.90;;
71162;SDS011;58858;50.948;6.566;2024-02-04T11:08:27;2.17;;;1.10;;
71162;SDS011;58858;50.948;6.566;2024-02-04T11:29:12;2.47;;;1.75;;
71162;SDS011;58858;50.948;6.566;2024-02-04T11:39:13;3.45;;;1.80;;
71162;SDS011;58858;50.948;6.566;2024-02-04T11:49:18;2.28;;;1.50;;
71162;SDS011;58858;50.948;6.566;2024-02-04T11:59:20;2.37;;;1.53;;
71162;SDS011;58858;50.948;6.566;2024-02-04T12:09:22;1.98;;;1.25;;
71162;SDS011;58858;50.948;6.566;2024-02-04T12:19:23;1.50;;;0.80;;
71162;SDS011;58858;50.948;6.566;2024-02-04T12:29:24;1.23;;;1.08;;
71162;SDS011;58858;50.948;6.566;2024-02-04T12:39:26;1.30;;;1.20;;
71162;SDS011;58858;50.948;6.566;2024-02-04T12:49:27;4.50;;;1.52;;
71162;SDS011;58858;50.948;6.566;2024-02-04T12:59:32;3.42;;;1.25;;
71162;SDS011;58858;50.948;6.566;2024-02-04T13:09:36;1.38;;;1.25;;
71162;SDS011;58858;50.948;6.566;2024-02-04T13:19:38;2.45;;;0.80;;
71162;SDS011;58858;50.948;6.566;2024-02-04T13:29:39;1.45;;;0.95;;
71162;SDS011;58858;50.948;6.566;2024-02-04T13:39:40;0.95;;;0.60;;
71162;SDS011;58858;50.948;6.566;2024-02-04T13:49:41;0.63;;;0.63;;
71162;SDS011;58858;50.948;6.566;2024-02-04T13:59:42;0.70;;;0.68;;
71162;SDS011;58858;50.948;6.566;2024-02-04T14:09:44;1.58;;;0.90;;
71162;SDS011;58858;50.948;6.566;2024-02-04T14:19:45;0.50;;;0.50;;
71162;SDS011;58858;50.948;6.566;2024-02-04T14:29:51;1.17;;;0.60;;
71162;SDS011;58858;50.948;6.566;2024-02-04T14:39:55;1.30;;;0.90;;
71162;SDS011;58858;50.948;6.566;2024-02-04T14:49:59;0.88;;;0.88;;
71162;SDS011;58858;50.948;6.566;2024-02-04T15:00:00;1.88;;;1.33;;
71162;SDS011;58858;50.948;6.566;2024-02-04T15:10:01;1.10;;;1.00;;
71162;SDS011;58858;50.948;6.566;2024-02-04T15:20:02;1.20;;;1.10;;
71162;SDS011;58858;50.948;6.566;2024-02-04T15:30:04;0.70;;;0.70;;
71162;SDS011;58858;50.948;6.566;2024-02-04T15:40:06;1.20;;;1.10;;
71162;SDS011;58858;50.948;6.566;2024-02-04T15:50:09;2.00;;;1.08;;
71162;SDS011;58858;50.948;6.566;2024-02-04T16:00:11;2.45;;;1.55;;
71162;SDS011;58858;50.948;6.566;2024-02-04T16:10:26;3.85;;;1.33;;
71162;SDS011;58858;50.948;6.566;2024-02-04T16:20:27;0.93;;;0.60;;
71162;SDS011;58858;50.948;6.566;2024-02-04T16:30:29;0.70;;;0.70;;
71162;SDS011;58858;50.948;6.566;2024-02-04T16:40:31;1.05;;;0.70;;
71162;SDS011;58858;50.948;6.566;2024-02-04T16:50:32;3.42;;;1.23;;
71162;SDS011;58858;50.948;6.566;2024-02-04T17:00:33;1.00;;;0.40;;
71162;SDS011;58858;50.948;6.566;2024-02-04T17:10:35;0.85;;;0.43;;
71162;SDS011;58858;50.948;6.566;2024-02-04T17:20:41;1.20;;;0.77;;
71162;SDS011;58858;50.948;6.566;2024-02-04T17:30:47;3.67;;;1.30;;
71162;SDS011;58858;50.948;6.566;2024-02-04T17:40:49;3.50;;;1.00;;
71162;SDS011;58858;50.948;6.566;2024-02-04T17:50:50;1.80;;;1.15;;
71162;SDS011;58858;50.948;6.566;2024-02-04T18:00:51;3.67;;;1.17;;
71162;SDS011;58858;50.948;6.566;2024-02-04T18:10:52;2.22;;;1.00;;
71162;SDS011;58858;50.948;6.566;2024-02-04T18:20:53;1.25;;;0.85;;
71162;SDS011;58858;50.948;6.566;2024-02-04T18:30:54;1.75;;;0.93;;
71162;SDS011;58858;50.948;6.566;2024-02-04T18:40:55;3.40;;;1.17;;
71162;SDS011;58858;50.948;6.566;2024-02-04T18:50:56;2.28;;;1.20;;
71162;SDS011;58858;50.948;6.566;2024-02-04T19:00:58;1.60;;;1.08;;
71162;SDS011;58858;50.948;6.566;2024-02-04T19:10:59;2.22;;;1.63;;
71162;SDS011;58858;50.948;6.566;2024-02-04T19:21:00;1.60;;;1.40;;
71162;SDS011;58858;50.948;6.566;2024-02-04T19:31:03;2.90;;;1.58;;
71162;SDS011;58858;50.948;6.566;2024-02-04T19:41:04;2.13;;;1.75;;
71162;SDS011;58858;50.948;6.566;2024-02-04T19:51:05;3.22;;;2.20;;
71162;SDS011;58858;50.948;6.566;2024-02-04T20:01:06;1.48;;;1.38;;
71162;SDS011;58858;50.948;6.566;2024-02-04T20:11:07;2.58;;;1.13;;
71162;SDS011;58858;50.948;6.566;2024-02-04T20:21:08;6.38;;;2.00;;
71162;SDS011;58858;50.948;6.566;2024-02-04T20:31:11;0.68;;;0.68;;
71162;SDS011;58858;50.948;6.566;2024-02-04T20:41:12;1.95;;;0.70;;
71162;SDS011;58858;50.948;6.566;2024-02-04T20:51:13;0.98;;;0.47;;
71162;SDS011;58858;50.948;6.566;2024-02-04T21:01:16;1.10;;;0.30;;
71162;SDS011;58858;50.948;6.566;2024-02-04T21:11:19;0.90;;;0.75;;
71162;SDS011;58858;50.948;6.566;2024-02-04T21:21:21;0.88;;;0.50;;
71162;SDS011;58858;50.948;6.566;2024-02-04T21:31:22;1.05;;;0.52;;
71162;SDS011;58858;50.948;6.566;2024-02-04T21:41:23;0.73;;;0.55;;
71162;SDS011;58858;50.948;6.566;2024-02-04T21:51:24;1.23;;;0.90;;
71162;SDS011;58858;50.948;6.566;2024-02-04T22:01:25;1.98;;;1.30;;
71162;SDS011;58858;50.948;6.566;2024-02-04T22:11:27;2.75;;;2.05;;
71162;SDS011;58858;50.948;6.566;2024-02-04T22:21:29;5.13;;;1.20;;
71162;SDS011;58858;50.948;6.566;2024-02-04T22:31:30;1.88;;;1.30;;
71162;SDS011;58858;50.948;6.566;2024-02-04T22:41:33;4.47;;;1.90;;
71162;SDS011;58858;50.948;6.566;2024-02-04T22:51:34;7.10;;;2.42;;
71162;SDS011;58858;50.948;6.566;2024-02-04T23:01:38;7.97;;;2.10;;
71162;SDS011;58858;50.948;6.566;2024-02-04T23:11:40;13.25;;;2.80;;
71162;SDS011;58858;50.948;6.566;2024-02-04T23:21:42;5.78;;;1.83;;
71162;SDS011;58858;50.948;6.566;2024-02-04T23:31:43;10.07;;;3.05;;
71162;SDS011;58858;50.948;6.566;2024-02-04T23:41:44;6.28;;;2.58;;
71162;SDS011;58858;50.948;6.566;2024-02-04T23:51:47;14.07;;;2.97;;
